Esadore Lake, Wisconsin
Current Conditions -  °F | °C
As of 4:55 PM on Saturday 20 Dec 2014 (Local Time) from KMDZ Reporting Station
Haze Haze  
Wind Chill: 28°   Ceiling: 900
Heat Index: 28°   Visibility: 5mi
Dew Point: 25°   Wind: 3mph
Humidity: 90%   Direction: 140°SE
Pressure: 30.15"   Gusts: NA
Location:  45.2044°N, 90.4212°W
Report Text: KMDZ 202255Z AUTO 14003KT 5SM BR OVC009 M02/M04 A3015 RMK AO2 T10231037
Loading
Personal Weather Stations






























Interactive Weather Map New forecast layout! Learn more

10-Day Weather Forecast

Advertisements
Track Severe Weather on mobile